sensor_id;sensor_type;location;lat;lon;timestamp;P1;durP1;ratioP1;P2;durP2;ratioP2
24813;SDS011;12904;50.088;11.414;2023-04-25T00:01:03;7.43;;;6.57;;
24813;SDS011;12904;50.088;11.414;2023-04-25T00:03:33;7.00;;;6.35;;
24813;SDS011;12904;50.088;11.414;2023-04-25T00:06:00;7.63;;;6.93;;
24813;SDS011;12904;50.088;11.414;2023-04-25T00:08:28;7.55;;;6.65;;
24813;SDS011;12904;50.088;11.414;2023-04-25T00:10:55;8.70;;;7.53;;
24813;SDS011;12904;50.088;11.414;2023-04-25T00:13:21;6.50;;;5.97;;
24813;SDS011;12904;50.088;11.414;2023-04-25T00:15:47;6.80;;;5.57;;
24813;SDS011;12904;50.088;11.414;2023-04-25T00:18:13;6.57;;;5.93;;
24813;SDS011;12904;50.088;11.414;2023-04-25T00:20:39;6.90;;;6.25;;
24813;SDS011;12904;50.088;11.414;2023-04-25T00:23:05;7.85;;;7.05;;
24813;SDS011;12904;50.088;11.414;2023-04-25T00:25:31;6.90;;;6.30;;
24813;SDS011;12904;50.088;11.414;2023-04-25T00:27:56;11.05;;;7.18;;
24813;SDS011;12904;50.088;11.414;2023-04-25T00:30:22;7.95;;;6.40;;
24813;SDS011;12904;50.088;11.414;2023-04-25T00:32:48;6.70;;;6.07;;
24813;SDS011;12904;50.088;11.414;2023-04-25T00:35:13;7.45;;;6.75;;
24813;SDS011;12904;50.088;11.414;2023-04-25T00:37:39;6.85;;;6.20;;
24813;SDS011;12904;50.088;11.414;2023-04-25T00:40:06;9.00;;;6.28;;
24813;SDS011;12904;50.088;11.414;2023-04-25T00:42:32;6.93;;;6.20;;
24813;SDS011;12904;50.088;11.414;2023-04-25T00:44:58;7.53;;;6.82;;
24813;SDS011;12904;50.088;11.414;2023-04-25T00:47:25;7.20;;;6.22;;
24813;SDS011;12904;50.088;11.414;2023-04-25T00:49:50;7.25;;;6.53;;
24813;SDS011;12904;50.088;11.414;2023-04-25T00:52:18;7.55;;;6.25;;
24813;SDS011;12904;50.088;11.414;2023-04-25T00:54:44;6.90;;;6.30;;
24813;SDS011;12904;50.088;11.414;2023-04-25T00:57:10;6.57;;;5.97;;
24813;SDS011;12904;50.088;11.414;2023-04-25T00:59:36;7.75;;;6.95;;
24813;SDS011;12904;50.088;11.414;2023-04-25T01:02:02;6.93;;;6.22;;
24813;SDS011;12904;50.088;11.414;2023-04-25T01:04:29;6.82;;;6.22;;
24813;SDS011;12904;50.088;11.414;2023-04-25T01:06:55;8.50;;;6.90;;
24813;SDS011;12904;50.088;11.414;2023-04-25T01:09:21;6.97;;;6.35;;
24813;SDS011;12904;50.088;11.414;2023-04-25T01:11:48;7.53;;;6.70;;
24813;SDS011;12904;50.088;11.414;2023-04-25T01:14:14;7.35;;;6.75;;
24813;SDS011;12904;50.088;11.414;2023-04-25T01:16:40;8.00;;;6.97;;
24813;SDS011;12904;50.088;11.414;2023-04-25T01:19:09;7.68;;;6.95;;
24813;SDS011;12904;50.088;11.414;2023-04-25T01:21:38;7.20;;;6.38;;
24813;SDS011;12904;50.088;11.414;2023-04-25T01:24:05;7.13;;;6.53;;
24813;SDS011;12904;50.088;11.414;2023-04-25T01:26:31;8.65;;;6.70;;
24813;SDS011;12904;50.088;11.414;2023-04-25T01:28:58;7.45;;;6.85;;
24813;SDS011;12904;50.088;11.414;2023-04-25T01:31:24;9.30;;;6.93;;
24813;SDS011;12904;50.088;11.414;2023-04-25T01:33:52;7.47;;;6.80;;
24813;SDS011;12904;50.088;11.414;2023-04-25T01:36:18;7.32;;;6.63;;
24813;SDS011;12904;50.088;11.414;2023-04-25T01:38:44;7.53;;;6.72;;
24813;SDS011;12904;50.088;11.414;2023-04-25T01:41:12;8.50;;;7.43;;
24813;SDS011;12904;50.088;11.414;2023-04-25T01:43:38;8.63;;;7.15;;
24813;SDS011;12904;50.088;11.414;2023-04-25T01:46:04;8.48;;;7.32;;
24813;SDS011;12904;50.088;11.414;2023-04-25T01:48:30;7.78;;;6.95;;
24813;SDS011;12904;50.088;11.414;2023-04-25T01:50:55;6.97;;;6.28;;
24813;SDS011;12904;50.088;11.414;2023-04-25T01:53:21;9.45;;;7.13;;
24813;SDS011;12904;50.088;11.414;2023-04-25T01:55:47;8.07;;;7.38;;
24813;SDS011;12904;50.088;11.414;2023-04-25T01:58:13;10.73;;;7.25;;
24813;SDS011;12904;50.088;11.414;2023-04-25T02:00:39;8.10;;;7.30;;
24813;SDS011;12904;50.088;11.414;2023-04-25T02:03:05;8.23;;;7.53;;
24813;SDS011;12904;50.088;11.414;2023-04-25T02:05:38;10.07;;;7.53;;
24813;SDS011;12904;50.088;11.414;2023-04-25T02:08:05;8.85;;;7.13;;
24813;SDS011;12904;50.088;11.414;2023-04-25T02:10:32;8.52;;;6.97;;
24813;SDS011;12904;50.088;11.414;2023-04-25T02:12:58;8.20;;;7.47;;
24813;SDS011;12904;50.088;11.414;2023-04-25T02:15:24;7.38;;;6.68;;
24813;SDS011;12904;50.088;11.414;2023-04-25T02:17:50;8.77;;;6.60;;
24813;SDS011;12904;50.088;11.414;2023-04-25T02:20:17;7.75;;;7.10;;
24813;SDS011;12904;50.088;11.414;2023-04-25T02:22:45;10.45;;;6.78;;
24813;SDS011;12904;50.088;11.414;2023-04-25T02:25:11;7.95;;;7.22;;
24813;SDS011;12904;50.088;11.414;2023-04-25T02:27:36;8.60;;;7.80;;
24813;SDS011;12904;50.088;11.414;2023-04-25T02:30:02;9.50;;;8.10;;
24813;SDS011;12904;50.088;11.414;2023-04-25T02:32:29;9.50;;;8.70;;
24813;SDS011;12904;50.088;11.414;2023-04-25T02:34:55;9.18;;;8.27;;
24813;SDS011;12904;50.088;11.414;2023-04-25T02:37:23;14.38;;;8.05;;
24813;SDS011;12904;50.088;11.414;2023-04-25T02:39:49;9.15;;;8.10;;
24813;SDS011;12904;50.088;11.414;2023-04-25T02:42:14;10.38;;;8.48;;
24813;SDS011;12904;50.088;11.414;2023-04-25T02:44:40;9.55;;;8.48;;
24813;SDS011;12904;50.088;11.414;2023-04-25T02:47:06;9.68;;;8.65;;
24813;SDS011;12904;50.088;11.414;2023-04-25T02:49:32;13.05;;;9.32;;
24813;SDS011;12904;50.088;11.414;2023-04-25T02:51:57;11.50;;;8.85;;
24813;SDS011;12904;50.088;11.414;2023-04-25T02:54:23;10.07;;;9.18;;
24813;SDS011;12904;50.088;11.414;2023-04-25T02:56:48;12.02;;;9.60;;
24813;SDS011;12904;50.088;11.414;2023-04-25T02:59:14;11.13;;;10.13;;
24813;SDS011;12904;50.088;11.414;2023-04-25T03:01:40;11.55;;;9.45;;
24813;SDS011;12904;50.088;11.414;2023-04-25T03:04:06;10.95;;;8.38;;
24813;SDS011;12904;50.088;11.414;2023-04-25T03:06:31;11.10;;;8.85;;
24813;SDS011;12904;50.088;11.414;2023-04-25T03:08:57;10.73;;;8.63;;
24813;SDS011;12904;50.088;11.414;2023-04-25T03:11:24;10.07;;;9.18;;
24813;SDS011;12904;50.088;11.414;2023-04-25T03:13:50;12.70;;;9.07;;
24813;SDS011;12904;50.088;11.414;2023-04-25T03:16:15;10.90;;;8.35;;
24813;SDS011;12904;50.088;11.414;2023-04-25T03:18:41;10.50;;;9.48;;
24813;SDS011;12904;50.088;11.414;2023-04-25T03:21:07;10.48;;;8.55;;
24813;SDS011;12904;50.088;11.414;2023-04-25T03:23:33;10.07;;;9.00;;
24813;SDS011;12904;50.088;11.414;2023-04-25T03:25:58;11.40;;;9.40;;
24813;SDS011;12904;50.088;11.414;2023-04-25T03:28:24;9.80;;;8.90;;
24813;SDS011;12904;50.088;11.414;2023-04-25T03:30:50;10.82;;;9.77;;
24813;SDS011;12904;50.088;11.414;2023-04-25T03:33:16;10.50;;;9.48;;
24813;SDS011;12904;50.088;11.414;2023-04-25T03:35:41;11.35;;;9.10;;
24813;SDS011;12904;50.088;11.414;2023-04-25T03:38:07;10.13;;;9.07;;
24813;SDS011;12904;50.088;11.414;2023-04-25T03:40:33;10.50;;;9.38;;
24813;SDS011;12904;50.088;11.414;2023-04-25T03:42:59;12.38;;;9.32;;
24813;SDS011;12904;50.088;11.414;2023-04-25T03:45:25;10.93;;;9.75;;
24813;SDS011;12904;50.088;11.414;2023-04-25T03:47:50;10.70;;;8.07;;
24813;SDS011;12904;50.088;11.414;2023-04-25T03:50:16;11.07;;;9.80;;
24813;SDS011;12904;50.088;11.414;2023-04-25T03:52:42;12.43;;;8.90;;
24813;SDS011;12904;50.088;11.414;2023-04-25T03:55:08;10.77;;;9.77;;
24813;SDS011;12904;50.088;11.414;2023-04-25T03:57:34;12.68;;;9.30;;
24813;SDS011;12904;50.088;11.414;2023-04-25T04:00:00;11.27;;;9.70;;
24813;SDS011;12904;50.088;11.414;2023-04-25T04:02:26;10.32;;;9.25;;
24813;SDS011;12904;50.088;11.414;2023-04-25T04:04:51;9.55;;;8.75;;
24813;SDS011;12904;50.088;11.414;2023-04-25T04:07:17;9.35;;;8.13;;
24813;SDS011;12904;50.088;11.414;2023-04-25T04:09:43;9.43;;;8.52;;
24813;SDS011;12904;50.088;11.414;2023-04-25T04:12:08;9.77;;;8.77;;
24813;SDS011;12904;50.088;11.414;2023-04-25T04:14:34;10.10;;;9.02;;
24813;SDS011;12904;50.088;11.414;2023-04-25T04:16:59;9.80;;;8.73;;
24813;SDS011;12904;50.088;11.414;2023-04-25T04:19:25;12.50;;;8.70;;
24813;SDS011;12904;50.088;11.414;2023-04-25T04:21:51;16.65;;;10.90;;
24813;SDS011;12904;50.088;11.414;2023-04-25T04:24:16;12.20;;;11.00;;
24813;SDS011;12904;50.088;11.414;2023-04-25T04:26:42;12.95;;;9.70;;
24813;SDS011;12904;50.088;11.414;2023-04-25T04:29:10;11.77;;;7.47;;
24813;SDS011;12904;50.088;11.414;2023-04-25T04:31:36;6.47;;;5.80;;
24813;SDS011;12904;50.088;11.414;2023-04-25T04:34:01;7.60;;;6.18;;
24813;SDS011;12904;50.088;11.414;2023-04-25T04:36:28;6.03;;;5.45;;
24813;SDS011;12904;50.088;11.414;2023-04-25T04:38:54;5.43;;;4.93;;
24813;SDS011;12904;50.088;11.414;2023-04-25T04:41:21;5.07;;;4.63;;
24813;SDS011;12904;50.088;11.414;2023-04-25T04:43:47;6.80;;;4.55;;
24813;SDS011;12904;50.088;11.414;2023-04-25T04:46:13;6.30;;;4.28;;
24813;SDS011;12904;50.088;11.414;2023-04-25T04:48:39;4.03;;;3.63;;
24813;SDS011;12904;50.088;11.414;2023-04-25T04:51:05;4.30;;;3.70;;
24813;SDS011;12904;50.088;11.414;2023-04-25T04:53:31;4.90;;;3.72;;
24813;SDS011;12904;50.088;11.414;2023-04-25T04:55:57;4.45;;;3.45;;
24813;SDS011;12904;50.088;11.414;2023-04-25T04:58:23;6.32;;;4.38;;
24813;SDS011;12904;50.088;11.414;2023-04-25T05:00:49;5.80;;;5.20;;
24813;SDS011;12904;50.088;11.414;2023-04-25T05:03:15;5.97;;;4.95;;
24813;SDS011;12904;50.088;11.414;2023-04-25T05:05:41;8.70;;;4.28;;
24813;SDS011;12904;50.088;11.414;2023-04-25T05:08:06;5.32;;;4.82;;
24813;SDS011;12904;50.088;11.414;2023-04-25T05:10:32;6.80;;;4.43;;
24813;SDS011;12904;50.088;11.414;2023-04-25T05:12:58;4.68;;;3.30;;
24813;SDS011;12904;50.088;11.414;2023-04-25T05:15:23;3.47;;;3.00;;
24813;SDS011;12904;50.088;11.414;2023-04-25T05:17:49;3.20;;;2.85;;
24813;SDS011;12904;50.088;11.414;2023-04-25T05:20:15;3.25;;;2.95;;
24813;SDS011;12904;50.088;11.414;2023-04-25T05:22:41;3.47;;;3.17;;
24813;SDS011;12904;50.088;11.414;2023-04-25T05:25:07;2.90;;;2.60;;
24813;SDS011;12904;50.088;11.414;2023-04-25T05:27:33;6.22;;;3.10;;
24813;SDS011;12904;50.088;11.414;2023-04-25T05:29:59;3.90;;;3.33;;
24813;SDS011;12904;50.088;11.414;2023-04-25T05:32:25;4.10;;;3.72;;
24813;SDS011;12904;50.088;11.414;2023-04-25T05:34:51;3.05;;;2.60;;
24813;SDS011;12904;50.088;11.414;2023-04-25T05:37:17;3.22;;;2.90;;
24813;SDS011;12904;50.088;11.414;2023-04-25T05:39:42;4.68;;;3.47;;
24813;SDS011;12904;50.088;11.414;2023-04-25T05:42:08;3.65;;;2.88;;
24813;SDS011;12904;50.088;11.414;2023-04-25T05:44:34;3.15;;;2.85;;
24813;SDS011;12904;50.088;11.414;2023-04-25T05:46:59;3.63;;;3.20;;
24813;SDS011;12904;50.088;11.414;2023-04-25T05:49:25;4.72;;;3.15;;
24813;SDS011;12904;50.088;11.414;2023-04-25T05:51:51;3.75;;;2.53;;
24813;SDS011;12904;50.088;11.414;2023-04-25T05:54:16;3.65;;;2.70;;
24813;SDS011;12904;50.088;11.414;2023-04-25T05:56:42;3.22;;;2.92;;
24813;SDS011;12904;50.088;11.414;2023-04-25T05:59:08;4.68;;;2.95;;
24813;SDS011;12904;50.088;11.414;2023-04-25T06:01:33;2.83;;;2.47;;
24813;SDS011;12904;50.088;11.414;2023-04-25T06:03:59;2.92;;;2.67;;
24813;SDS011;12904;50.088;11.414;2023-04-25T06:06:25;3.70;;;2.97;;
24813;SDS011;12904;50.088;11.414;2023-04-25T06:08:51;3.63;;;3.30;;
24813;SDS011;12904;50.088;11.414;2023-04-25T06:11:17;2.63;;;2.42;;
24813;SDS011;12904;50.088;11.414;2023-04-25T06:13:42;2.85;;;2.45;;
24813;SDS011;12904;50.088;11.414;2023-04-25T06:16:08;4.60;;;2.53;;
24813;SDS011;12904;50.088;11.414;2023-04-25T06:18:34;2.78;;;2.58;;
24813;SDS011;12904;50.088;11.414;2023-04-25T06:20:59;2.88;;;2.58;;
24813;SDS011;12904;50.088;11.414;2023-04-25T06:23:25;4.45;;;3.00;;
24813;SDS011;12904;50.088;11.414;2023-04-25T06:25:51;7.72;;;2.40;;
24813;SDS011;12904;50.088;11.414;2023-04-25T06:28:17;3.70;;;3.25;;
24813;SDS011;12904;50.088;11.414;2023-04-25T06:30:42;3.50;;;3.20;;
24813;SDS011;12904;50.088;11.414;2023-04-25T06:33:08;4.63;;;3.47;;
24813;SDS011;12904;50.088;11.414;2023-04-25T06:35:34;3.97;;;3.58;;
24813;SDS011;12904;50.088;11.414;2023-04-25T06:38:00;3.40;;;3.20;;
24813;SDS011;12904;50.088;11.414;2023-04-25T06:40:25;3.15;;;2.67;;
24813;SDS011;12904;50.088;11.414;2023-04-25T06:42:51;4.68;;;3.10;;
24813;SDS011;12904;50.088;11.414;2023-04-25T06:45:17;2.92;;;2.70;;
24813;SDS011;12904;50.088;11.414;2023-04-25T06:47:42;3.83;;;3.00;;
24813;SDS011;12904;50.088;11.414;2023-04-25T06:50:08;2.75;;;2.50;;
24813;SDS011;12904;50.088;11.414;2023-04-25T06:52:34;3.15;;;2.60;;
24813;SDS011;12904;50.088;11.414;2023-04-25T06:54:59;6.22;;;3.38;;
24813;SDS011;12904;50.088;11.414;2023-04-25T06:57:25;4.13;;;3.72;;
24813;SDS011;12904;50.088;11.414;2023-04-25T06:59:51;4.10;;;3.50;;
24813;SDS011;12904;50.088;11.414;2023-04-25T07:02:16;5.57;;;3.35;;
24813;SDS011;12904;50.088;11.414;2023-04-25T07:04:42;3.50;;;3.15;;
24813;SDS011;12904;50.088;11.414;2023-04-25T07:07:07;7.13;;;4.22;;
24813;SDS011;12904;50.088;11.414;2023-04-25T07:09:33;3.88;;;2.65;;
24813;SDS011;12904;50.088;11.414;2023-04-25T07:11:59;3.83;;;3.53;;
24813;SDS011;12904;50.088;11.414;2023-04-25T07:14:26;3.45;;;3.15;;
24813;SDS011;12904;50.088;11.414;2023-04-25T07:16:52;5.80;;;3.88;;
24813;SDS011;12904;50.088;11.414;2023-04-25T07:19:20;3.53;;;3.13;;
24813;SDS011;12904;50.088;11.414;2023-04-25T07:21:46;3.17;;;2.90;;
24813;SDS011;12904;50.088;11.414;2023-04-25T07:24:11;3.55;;;3.00;;
24813;SDS011;12904;50.088;11.414;2023-04-25T07:26:37;4.05;;;3.65;;
24813;SDS011;12904;50.088;11.414;2023-04-25T07:29:03;3.75;;;3.13;;
24813;SDS011;12904;50.088;11.414;2023-04-25T07:31:28;4.63;;;3.95;;
24813;SDS011;12904;50.088;11.414;2023-04-25T07:33:54;4.45;;;4.05;;
24813;SDS011;12904;50.088;11.414;2023-04-25T07:36:20;5.65;;;4.70;;
24813;SDS011;12904;50.088;11.414;2023-04-25T07:38:46;5.57;;;4.40;;
24813;SDS011;12904;50.088;11.414;2023-04-25T07:41:12;5.13;;;4.65;;
24813;SDS011;12904;50.088;11.414;2023-04-25T07:43:37;6.50;;;5.32;;
24813;SDS011;12904;50.088;11.414;2023-04-25T07:46:03;5.55;;;5.15;;
24813;SDS011;12904;50.088;11.414;2023-04-25T07:48:29;6.15;;;5.55;;
24813;SDS011;12904;50.088;11.414;2023-04-25T07:50:55;7.10;;;6.43;;
24813;SDS011;12904;50.088;11.414;2023-04-25T07:53:21;8.30;;;6.47;;
24813;SDS011;12904;50.088;11.414;2023-04-25T07:55:47;8.25;;;7.18;;
24813;SDS011;12904;50.088;11.414;2023-04-25T07:58:12;10.18;;;6.85;;
24813;SDS011;12904;50.088;11.414;2023-04-25T08:00:38;8.25;;;6.80;;
24813;SDS011;12904;50.088;11.414;2023-04-25T08:03:04;7.43;;;6.68;;
24813;SDS011;12904;50.088;11.414;2023-04-25T08:05:31;7.38;;;6.68;;
24813;SDS011;12904;50.088;11.414;2023-04-25T08:07:56;8.63;;;6.63;;
24813;SDS011;12904;50.088;11.414;2023-04-25T08:10:22;7.13;;;6.43;;
24813;SDS011;12904;50.088;11.414;2023-04-25T08:12:48;9.27;;;6.32;;
24813;SDS011;12904;50.088;11.414;2023-04-25T08:15:14;7.10;;;5.70;;
24813;SDS011;12904;50.088;11.414;2023-04-25T08:17:40;7.35;;;6.65;;
24813;SDS011;12904;50.088;11.414;2023-04-25T08:20:06;7.80;;;5.32;;
24813;SDS011;12904;50.088;11.414;2023-04-25T08:22:32;8.40;;;6.30;;
24813;SDS011;12904;50.088;11.414;2023-04-25T08:24:58;6.78;;;5.93;;
24813;SDS011;12904;50.088;11.414;2023-04-25T08:27:24;4.90;;;4.40;;
24813;SDS011;12904;50.088;11.414;2023-04-25T08:29:50;4.97;;;4.32;;
24813;SDS011;12904;50.088;11.414;2023-04-25T08:32:16;5.57;;;4.22;;
24813;SDS011;12904;50.088;11.414;2023-04-25T08:34:42;4.43;;;4.03;;
24813;SDS011;12904;50.088;11.414;2023-04-25T08:37:09;4.95;;;3.80;;
24813;SDS011;12904;50.088;11.414;2023-04-25T08:39:35;5.57;;;4.25;;
24813;SDS011;12904;50.088;11.414;2023-04-25T08:42:02;4.72;;;3.97;;
24813;SDS011;12904;50.088;11.414;2023-04-25T08:44:33;3.78;;;3.35;;
24813;SDS011;12904;50.088;11.414;2023-04-25T08:47:00;8.70;;;4.18;;
24813;SDS011;12904;50.088;11.414;2023-04-25T08:49:33;5.18;;;3.70;;
24813;SDS011;12904;50.088;11.414;2023-04-25T08:52:00;4.60;;;3.83;;
24813;SDS011;12904;50.088;11.414;2023-04-25T08:54:28;5.93;;;4.20;;
24813;SDS011;12904;50.088;11.414;2023-04-25T08:56:57;5.50;;;3.97;;
24813;SDS011;12904;50.088;11.414;2023-04-25T08:59:26;5.35;;;3.55;;
24813;SDS011;12904;50.088;11.414;2023-04-25T09:01:53;5.15;;;3.53;;
24813;SDS011;12904;50.088;11.414;2023-04-25T09:04:18;4.32;;;2.90;;
24813;SDS011;12904;50.088;11.414;2023-04-25T09:06:45;5.15;;;3.58;;
24813;SDS011;12904;50.088;11.414;2023-04-25T09:09:11;4.15;;;3.70;;
24813;SDS011;12904;50.088;11.414;2023-04-25T09:11:37;6.35;;;3.72;;
24813;SDS011;12904;50.088;11.414;2023-04-25T09:14:16;5.68;;;3.55;;
24813;SDS011;12904;50.088;11.414;2023-04-25T09:19:29;4.75;;;2.97;;
24813;SDS011;12904;50.088;11.414;2023-04-25T09:22:04;3.95;;;2.80;;
24813;SDS011;12904;50.088;11.414;2023-04-25T09:24:43;4.18;;;2.50;;
24813;SDS011;12904;50.088;11.414;2023-04-25T09:27:11;4.15;;;2.97;;
24813;SDS011;12904;50.088;11.414;2023-04-25T09:29:42;4.70;;;3.13;;
24813;SDS011;12904;50.088;11.414;2023-04-25T09:39:58;2.20;;;1.23;;
24813;SDS011;12904;50.088;11.414;2023-04-25T09:42:25;4.70;;;1.38;;
24813;SDS011;12904;50.088;11.414;2023-04-25T09:44:53;2.97;;;1.20;;
24813;SDS011;12904;50.088;11.414;2023-04-25T09:47:20;2.58;;;1.40;;
24813;SDS011;12904;50.088;11.414;2023-04-25T09:49:48;2.83;;;1.77;;
24813;SDS011;12904;50.088;11.414;2023-04-25T09:52:15;3.55;;;2.00;;
24813;SDS011;12904;50.088;11.414;2023-04-25T09:54:47;2.85;;;1.50;;
24813;SDS011;12904;50.088;11.414;2023-04-25T09:57:15;4.15;;;1.60;;
24813;SDS011;12904;50.088;11.414;2023-04-25T09:59:48;3.80;;;2.10;;
24813;SDS011;12904;50.088;11.414;2023-04-25T10:02:19;2.45;;;1.63;;
24813;SDS011;12904;50.088;11.414;2023-04-25T10:04:50;3.20;;;1.60;;
24813;SDS011;12904;50.088;11.414;2023-04-25T10:07:19;3.60;;;1.58;;
24813;SDS011;12904;50.088;11.414;2023-04-25T10:09:50;1.95;;;1.60;;
24813;SDS011;12904;50.088;11.414;2023-04-25T10:12:28;2.70;;;1.40;;
24813;SDS011;12904;50.088;11.414;2023-04-25T10:14:56;4.00;;;1.40;;
24813;SDS011;12904;50.088;11.414;2023-04-25T10:17:23;4.10;;;1.60;;
24813;SDS011;12904;50.088;11.414;2023-04-25T10:19:49;2.40;;;1.60;;
24813;SDS011;12904;50.088;11.414;2023-04-25T10:24:53;2.30;;;1.25;;
24813;SDS011;12904;50.088;11.414;2023-04-25T10:27:21;2.65;;;1.80;;
24813;SDS011;12904;50.088;11.414;2023-04-25T10:29:59;2.10;;;1.40;;
24813;SDS011;12904;50.088;11.414;2023-04-25T10:32:30;4.20;;;1.30;;
24813;SDS011;12904;50.088;11.414;2023-04-25T10:34:57;3.58;;;1.60;;
24813;SDS011;12904;50.088;11.414;2023-04-25T10:37:23;2.25;;;1.60;;
24813;SDS011;12904;50.088;11.414;2023-04-25T10:39:49;2.13;;;1.50;;
24813;SDS011;12904;50.088;11.414;2023-04-25T10:42:15;2.22;;;1.63;;
24813;SDS011;12904;50.088;11.414;2023-04-25T10:44:41;2.38;;;1.40;;
24813;SDS011;12904;50.088;11.414;2023-04-25T10:47:38;1.25;;;1.15;;
24813;SDS011;12904;50.088;11.414;2023-04-25T10:50:10;2.47;;;1.40;;
24813;SDS011;12904;50.088;11.414;2023-04-25T10:52:36;2.53;;;1.52;;
24813;SDS011;12904;50.088;11.414;2023-04-25T10:55:04;4.53;;;2.15;;
24813;SDS011;12904;50.088;11.414;2023-04-25T11:00:07;2.22;;;1.10;;
24813;SDS011;12904;50.088;11.414;2023-04-25T11:05:08;1.83;;;1.05;;
24813;SDS011;12904;50.088;11.414;2023-04-25T11:10:09;2.05;;;1.05;;
24813;SDS011;12904;50.088;11.414;2023-04-25T11:12:34;1.80;;;0.90;;
24813;SDS011;12904;50.088;11.414;2023-04-25T11:17:28;1.48;;;0.90;;
24813;SDS011;12904;50.088;11.414;2023-04-25T11:19:54;1.45;;;1.13;;
24813;SDS011;12904;50.088;11.414;2023-04-25T11:22:21;1.85;;;0.88;;
24813;SDS011;12904;50.088;11.414;2023-04-25T11:24:47;2.42;;;1.10;;
24813;SDS011;12904;50.088;11.414;2023-04-25T11:27:13;1.48;;;0.80;;
24813;SDS011;12904;50.088;11.414;2023-04-25T11:29:39;1.08;;;0.80;;
24813;SDS011;12904;50.088;11.414;2023-04-25T11:32:05;2.15;;;0.93;;
24813;SDS011;12904;50.088;11.414;2023-04-25T11:34:31;1.80;;;1.10;;
24813;SDS011;12904;50.088;11.414;2023-04-25T11:37:01;1.98;;;1.10;;
24813;SDS011;12904;50.088;11.414;2023-04-25T11:39:27;3.67;;;1.30;;
24813;SDS011;12904;50.088;11.414;2023-04-25T11:41:54;1.20;;;1.02;;
24813;SDS011;12904;50.088;11.414;2023-04-25T11:44:20;1.30;;;1.20;;
24813;SDS011;12904;50.088;11.414;2023-04-25T11:46:46;3.20;;;0.90;;
24813;SDS011;12904;50.088;11.414;2023-04-25T11:49:13;1.23;;;1.00;;
24813;SDS011;12904;50.088;11.414;2023-04-25T11:51:39;1.63;;;1.10;;
24813;SDS011;12904;50.088;11.414;2023-04-25T11:54:06;2.22;;;1.05;;
24813;SDS011;12904;50.088;11.414;2023-04-25T11:56:32;1.80;;;1.48;;
24813;SDS011;12904;50.088;11.414;2023-04-25T11:59:07;1.70;;;1.10;;
24813;SDS011;12904;50.088;11.414;2023-04-25T12:04:12;1.23;;;1.13;;
24813;SDS011;12904;50.088;11.414;2023-04-25T12:06:49;1.58;;;1.10;;
24813;SDS011;12904;50.088;11.414;2023-04-25T12:09:17;3.35;;;1.65;;
24813;SDS011;12904;50.088;11.414;2023-04-25T12:11:53;1.30;;;1.10;;
24813;SDS011;12904;50.088;11.414;2023-04-25T12:14:23;1.50;;;1.17;;
24813;SDS011;12904;50.088;11.414;2023-04-25T12:16:52;1.95;;;1.50;;
24813;SDS011;12904;50.088;11.414;2023-04-25T12:19:20;1.45;;;1.23;;
24813;SDS011;12904;50.088;11.414;2023-04-25T12:21:47;2.33;;;1.90;;
24813;SDS011;12904;50.088;11.414;2023-04-25T12:24:17;2.33;;;1.80;;
24813;SDS011;12904;50.088;11.414;2023-04-25T12:29:16;3.90;;;1.95;;
24813;SDS011;12904;50.088;11.414;2023-04-25T12:31:46;2.40;;;2.20;;
24813;SDS011;12904;50.088;11.414;2023-04-25T12:34:13;2.03;;;1.83;;
24813;SDS011;12904;50.088;11.414;2023-04-25T12:36:39;2.90;;;2.63;;
24813;SDS011;12904;50.088;11.414;2023-04-25T12:39:05;2.70;;;1.92;;
24813;SDS011;12904;50.088;11.414;2023-04-25T12:41:31;2.10;;;1.83;;
24813;SDS011;12904;50.088;11.414;2023-04-25T12:43:57;2.72;;;1.60;;
24813;SDS011;12904;50.088;11.414;2023-04-25T12:46:23;1.40;;;1.30;;
24813;SDS011;12904;50.088;11.414;2023-04-25T12:48:49;1.88;;;1.45;;
24813;SDS011;12904;50.088;11.414;2023-04-25T12:51:14;2.15;;;1.40;;
24813;SDS011;12904;50.088;11.414;2023-04-25T12:53:40;2.15;;;1.70;;
24813;SDS011;12904;50.088;11.414;2023-04-25T12:56:07;1.95;;;1.33;;
24813;SDS011;12904;50.088;11.414;2023-04-25T12:58:33;1.45;;;1.33;;
24813;SDS011;12904;50.088;11.414;2023-04-25T13:00:58;1.73;;;1.20;;
24813;SDS011;12904;50.088;11.414;2023-04-25T13:03:24;2.63;;;1.30;;
24813;SDS011;12904;50.088;11.414;2023-04-25T13:05:50;9.15;;;1.30;;
24813;SDS011;12904;50.088;11.414;2023-04-25T13:08:17;2.63;;;1.23;;
24813;SDS011;12904;50.088;11.414;2023-04-25T13:10:43;1.55;;;0.85;;
24813;SDS011;12904;50.088;11.414;2023-04-25T13:13:09;1.55;;;1.10;;
24813;SDS011;12904;50.088;11.414;2023-04-25T13:15:35;1.60;;;0.80;;
24813;SDS011;12904;50.088;11.414;2023-04-25T13:18:01;1.60;;;1.00;;
24813;SDS011;12904;50.088;11.414;2023-04-25T13:20:28;1.70;;;1.48;;
24813;SDS011;12904;50.088;11.414;2023-04-25T13:22:53;1.73;;;1.17;;
24813;SDS011;12904;50.088;11.414;2023-04-25T13:25:20;1.38;;;1.10;;
24813;SDS011;12904;50.088;11.414;2023-04-25T13:27:46;1.73;;;1.10;;
24813;SDS011;12904;50.088;11.414;2023-04-25T13:30:12;1.55;;;1.02;;
24813;SDS011;12904;50.088;11.414;2023-04-25T13:32:39;1.95;;;1.30;;
24813;SDS011;12904;50.088;11.414;2023-04-25T13:35:05;2.60;;;1.40;;
24813;SDS011;12904;50.088;11.414;2023-04-25T13:37:33;2.85;;;1.10;;
24813;SDS011;12904;50.088;11.414;2023-04-25T13:40:00;2.97;;;1.10;;
24813;SDS011;12904;50.088;11.414;2023-04-25T13:42:27;2.45;;;1.00;;
24813;SDS011;12904;50.088;11.414;2023-04-25T13:44:53;2.50;;;1.10;;
24813;SDS011;12904;50.088;11.414;2023-04-25T13:47:19;2.08;;;1.40;;
24813;SDS011;12904;50.088;11.414;2023-04-25T13:49:44;1.55;;;1.33;;
24813;SDS011;12904;50.088;11.414;2023-04-25T13:52:10;2.03;;;1.40;;
24813;SDS011;12904;50.088;11.414;2023-04-25T13:54:35;3.00;;;1.30;;
24813;SDS011;12904;50.088;11.414;2023-04-25T13:57:01;3.58;;;1.50;;
24813;SDS011;12904;50.088;11.414;2023-04-25T13:59:27;4.32;;;1.70;;
24813;SDS011;12904;50.088;11.414;2023-04-25T14:01:52;2.38;;;1.63;;
24813;SDS011;12904;50.088;11.414;2023-04-25T14:04:18;2.05;;;1.85;;
24813;SDS011;12904;50.088;11.414;2023-04-25T14:06:44;2.33;;;1.73;;
24813;SDS011;12904;50.088;11.414;2023-04-25T14:09:10;3.40;;;1.70;;
24813;SDS011;12904;50.088;11.414;2023-04-25T14:11:37;3.13;;;1.58;;
24813;SDS011;12904;50.088;11.414;2023-04-25T14:14:03;2.22;;;1.70;;
24813;SDS011;12904;50.088;11.414;2023-04-25T14:16:29;3.33;;;1.77;;
24813;SDS011;12904;50.088;11.414;2023-04-25T14:18:56;3.08;;;2.03;;
24813;SDS011;12904;50.088;11.414;2023-04-25T14:21:25;2.45;;;1.50;;
24813;SDS011;12904;50.088;11.414;2023-04-25T14:23:51;2.35;;;1.60;;
24813;SDS011;12904;50.088;11.414;2023-04-25T14:26:17;3.50;;;2.33;;
24813;SDS011;12904;50.088;11.414;2023-04-25T14:28:43;5.40;;;2.30;;
24813;SDS011;12904;50.088;11.414;2023-04-25T14:31:09;3.55;;;1.75;;
24813;SDS011;12904;50.088;11.414;2023-04-25T14:33:35;6.18;;;1.80;;
24813;SDS011;12904;50.088;11.414;2023-04-25T14:36:02;2.88;;;2.25;;
24813;SDS011;12904;50.088;11.414;2023-04-25T14:38:28;3.92;;;1.65;;
24813;SDS011;12904;50.088;11.414;2023-04-25T14:40:53;5.70;;;1.73;;
24813;SDS011;12904;50.088;11.414;2023-04-25T14:43:19;9.18;;;2.10;;
24813;SDS011;12904;50.088;11.414;2023-04-25T14:45:45;7.82;;;2.70;;
24813;SDS011;12904;50.088;11.414;2023-04-25T14:48:10;7.88;;;2.45;;
24813;SDS011;12904;50.088;11.414;2023-04-25T14:50:36;6.07;;;2.13;;
24813;SDS011;12904;50.088;11.414;2023-04-25T14:53:02;4.30;;;1.80;;
24813;SDS011;12904;50.088;11.414;2023-04-25T14:55:27;4.18;;;2.10;;
24813;SDS011;12904;50.088;11.414;2023-04-25T14:57:53;4.50;;;1.77;;